Vista (821, 693) Station Data

Red Flag Warning: No
Fire Weather Zone: 243
SDGE Region: North Coast
Lat/Lon: 33.205/-117.254

Observations

Time Wind Speed/Gust Temp(F) RH Fuel Moist Fuel Temp(F) Dewpt(F) Tmax(F) Tmin(F) Accum Precip 10-min Precip SL Press(mb)
4/29 11:50pm 31 2 G 3 60° 41% - - 36° 81.9° 55.2° - - -
4/29 11:40pm 15 1 G 2 61° 40% - - 36° 81.9° 55.2° - - -
4/29 11:30pm 87 0 G 1 61° 39% - - 36° 81.9° 55.2° - - -
4/29 11:20pm 78 1 G 2 61° 39% - - 36° 81.9° 55.2° - - -
4/29 11:10pm 50 1 G 2 62° 39% - - 36° 81.9° 55.2° - - -
4/29 11:00pm 15 1 G 2 62° 38% - - 36° 81.9° 55.2° - - -
4/29 10:50pm 30 1 G 2 63° 36% - - 35° 81.9° 55.2° - - -
4/29 10:40pm 202 0 G 3 63° 36% - - 36° 81.9° 55.2° - - -
4/29 10:30pm 203 1 G 2 63° 39% - - 37° 81.9° 55.2° - - -
4/29 10:20pm 122 0 G 1 63° 40% - - 38° 81.9° 55.2° - - -
4/29 10:10pm 160 0 G 1 63° 42% - - 40° 81.9° 55.2° - - -
4/29 10:00pm 337 0 G 1 63° 42% - - 40° 81.9° 55.2° - - -
4/29 9:50pm 160 1 G 3 63° 43% - - 41° 81.9° 55.2° - - -
4/29 9:40pm 183 0 G 2 64° 44% - - 41° 81.9° 55.2° - - -
4/29 9:30pm 165 1 G 2 64° 44% - - 42° 81.9° 55.2° - - -
4/29 9:20pm 165 1 G 2 64° 42% - - 41° 81.9° 55.2° - - -
4/29 9:10pm 123 0 G 1 65° 41% - - 41° 81.9° 55.2° - - -
4/29 9:00pm 149 1 G 2 65° 40% - - 41° 81.9° 55.2° - - -
4/29 8:50pm 188 1 G 3 66° 40% - - 40° 81.9° 55.2° - - -
4/29 8:40pm 227 2 G 5 66° 38% - - 40° 81.9° 55.2° - - -
4/29 8:30pm 264 3 G 8 67° 34% - - 37° 81.9° 55.2° - - -
4/29 8:20pm 263 3 G 8 68° 29% - - 34° 81.9° 55.2° - - -
4/29 8:10pm 277 3 G 10 68° 28% - - 33° 81.9° 55.2° - - -
4/29 8:00pm 256 3 G 7 68° 30% - - 35° 81.9° 55.2° - - -
4/29 7:50pm 235 3 G 6 67° 32% - - 37° 81.9° 55.2° - - -
4/29 7:40pm 240 3 G 7 68° 34% - - 38° 81.9° 55.2° - - -
4/29 7:30pm 244 4 G 9 68° 33% - - 38° 81.9° 55.2° - - -
4/29 7:20pm 229 4 G 9 69° 30% - - 37° 81.9° 55.2° - - -
4/29 7:10pm 241 4 G 9 71° 27% - - 35° 81.9° 55.2° - - -
4/29 7:00pm 261 3 G 7 71° 26% - - 35° 81.9° 55.2° - - -
4/29 6:50pm 257 4 G 8 71° 27% - - 35° 81.9° 55.2° - - -
4/29 6:40pm 278 5 G 12 71° 27% - - 35° 81.9° 55.2° - - -
4/29 6:30pm 289 5 G 10 71° 29% - - 37° 81.9° 55.2° - - -
4/29 6:20pm 286 6 G 11 72° 30% - - 39° 81.9° 55.2° - - -
4/29 6:10pm 281 6 G 12 73° 28% - - 38° 81.9° 55.2° - - -
4/29 6:00pm 285 5 G 9 74° 26% - - 37° 81.9° 55.2° - - -
4/29 5:50pm 274 6 G 12 75° 23% - - 35° 81.9° 55.2° - - -
4/29 5:40pm 279 4 G 9 75° 25% - - 37° 81.9° 55.2° - - -
4/29 5:30pm 289 5 G 10 75° 24% - - 36° 81.9° 55.2° - - -
4/29 5:20pm 278 6 G 14 75° 23% - - 35° 81.9° 55.2° - - -
4/29 5:10pm 264 6 G 13 75° 23% - - 35° 81.9° 55.2° - - -
4/29 5:00pm 295 6 G 12 76° 22% - - 34° 81.9° 55.2° - - -
4/29 4:50pm 277 6 G 13 76° 20% - - 32° 81.9° 55.2° - - -
4/29 4:40pm 282 6 G 13 77° 19% - - 32° 81.9° 55.2° - - -
4/29 4:30pm 284 6 G 11 77° 19% - - 31° 81.9° 55.2° - - -
4/29 4:20pm 257 6 G 16 76° 18% - - 30° 81.9° 55.2° - - -
4/29 4:10pm 265 6 G 12 76° 18% - - 30° 81.9° 55.2° - - -
4/29 4:00pm 276 7 G 13 76° 17% - - 29° 81.9° 55.2° - - -
4/29 3:50pm 286 8 G 13 76° 19% - - 31° 81.9° 55.2° - - -
4/29 3:40pm 284 8 G 13 76° 20% - - 32° 81.9° 55.2° - - -
4/29 3:30pm 273 7 G 12 77° 20% - - 33° 81.9° 55.2° - - -
4/29 3:20pm 269 7 G 13 77° 18% - - 31° 81.9° 55.2° - - -
4/29 3:10pm 274 8 G 14 78° 13% - - 23° 81.9° 55.2° - - -
4/29 3:00pm 281 6 G 13 79° 12% - - 23° 81.9° 55.2° - - -
4/29 2:50pm 258 6 G 15 79° 13% - - 24° 81.9° 55.2° - - -
4/29 2:40pm 260 6 G 13 78° 13% - - 24° 81.9° 55.2° - - -
4/29 2:30pm 249 5 G 12 79° 13% - - 23° 81.9° 55.2° - - -
4/29 2:20pm 259 6 G 13 79° 12% - - 22° 81.9° 55.2° - - -
4/29 2:10pm 247 6 G 11 78° 13% - - 24° 81.9° 55.2° - - -
4/29 2:00pm 279 7 G 13 77° 14% - - 24° 81.9° 55.2° - - -
4/29 1:50pm 281 7 G 13 77° 16% - - 27° 81.9° 55.2° - - -
4/29 1:40pm 273 8 G 14 76° 16% - - 27° 81.9° 55.2° - - -
4/29 1:30pm 270 7 G 13 77° 16% - - 28° 81.9° 55.2° - - -
4/29 1:20pm 251 7 G 15 77° 15% - - 26° 81.9° 55.2° - - -
4/29 1:10pm 274 7 G 14 78° 15% - - 26° 81.9° 55.2° - - -
4/29 1:00pm 290 8 G 13 77° 15% - - 26° 81.9° 55.2° - - -
4/29 12:50pm 285 8 G 15 78° 16% - - 28° 81.9° 55.2° - - -
4/29 12:40pm 247 6 G 14 78° 16% - - 28° 81.9° 55.2° - - -
4/29 12:30pm 250 5 G 13 78° 17% - - 30° 81.9° 55.2° - - -
4/29 12:20pm 279 7 G 14 79° 17% - - 30° 81.9° 55.2° - - -
4/29 12:10pm 358 3 G 7 81° 9% - - 18° 81.9° 55.2° - - -
4/29 12:00pm 332 5 G 10 80° 9% - - 17° 81.7° 55.2° - - -
4/29 11:50am 355 6 G 12 80° 9% - - 17° 81.7° 55.2° - - -
4/29 11:40am 320 4 G 8 80° 10% - - 17° 81.7° 55.2° - - -
4/29 11:30am 15 4 G 8 81° 10% - - 19° 81.7° 55.2° - - -
4/29 11:20am 342 4 G 12 80° 10% - - 18° 80.9° 55.2° - - -
4/29 11:10am 352 4 G 11 79° 10% - - 18° 80° 55.2° - - -
4/29 11:00am 33 4 G 9 79° 10% - - 18° 79.7° 55.2° - - -
4/29 10:50am 18 5 G 14 78° 10% - - 19° 79.4° 55.2° - - -
4/29 10:40am 5 4 G 11 78° 11% - - 19° 78.7° 55.2° - - -
4/29 10:30am 27 4 G 11 78° 11% - - 19° 78.5° 55.2° - - -
4/29 10:20am 10 5 G 15 77° 11% - - 19° 77.9° 55.2° - - -
4/29 10:10am 38 5 G 10 76° 12% - - 19° 77.9° 55.2° - - -
4/29 10:00am 27 6 G 15 76° 12% - - 19° 76.3° 55.2° - - -
4/29 9:50am 27 5 G 12 75° 12% - - 19° 75.9° 55.2° - - -
4/29 9:40am 37 5 G 11 75° 12% - - 19° 75.5° 55.2° - - -
4/29 9:30am 39 4 G 10 74° 13% - - 19° 75.1° 55.2° - - -
4/29 9:20am 40 4 G 9 74° 13% - - 20° 74.6° 55.2° - - -
4/29 9:10am 43 5 G 12 73° 13% - - 19° 73.7° 55.2° - - -
4/29 9:00am 17 5 G 12 73° 14% - - 20° 73.4° 55.2° - - -
4/29 8:50am 16 6 G 12 72° 14% - - 20° 72.5° 55.2° - - -
4/29 8:40am 11 6 G 11 71° 14% - - 20° 71.9° 55.2° - - -
4/29 8:30am 7 6 G 13 70° 14% - - 19° 70.9° 55.2° - - -
4/29 8:20am 359 6 G 15 70° 14% - - 18° 70.4° 55.2° - - -
4/29 8:10am 4 6 G 12 69° 14% - - 19° 69.7° 55.2° - - -
4/29 8:00am 16 6 G 12 69° 14% - - 18° 69.4° 55.2° - - -
4/29 7:50am 20 5 G 13 68° 15% - - 18° 68.9° 55.2° - - -
4/29 7:40am 17 4 G 10 68° 15% - - 19° 68.5° 55.2° - - -
4/29 7:30am 19 5 G 12 67° 15% - - 18° 67.9° 55.2° - - -
4/29 7:20am 22 5 G 13 66° 16% - - 19° 66.9° 55.2° - - -
4/29 7:10am 23 4 G 11 66° 16% - - 19° 66.5° 55.2° - - -
4/29 7:00am 26 4 G 10 66° 16% - - 19° 66.5° 55.2° - - -
4/29 6:50am 22 4 G 8 65° 16% - - 18° 66.5° 55.2° - - -
4/29 6:40am 28 4 G 9 65° 16% - - 18° 66.5° 55.2° - - -
4/29 6:30am 30 4 G 11 65° 16% - - 17° 66.5° 55.2° - - -
4/29 6:20am 15 4 G 14 65° 15% - - 17° 66.5° 55.2° - - -
4/29 6:10am 28 5 G 13 66° 15% - - 17° 66.5° 55.2° - - -
4/29 6:00am 32 5 G 14 66° 15% - - 17° 66° 55.2° - - -
4/29 5:50am 27 5 G 17 65° 16% - - 18° 66° 55.2° - - -
4/29 5:40am 30 4 G 9 64° 17% - - 19° 64.9° 55.2° - - -
4/29 5:30am 38 4 G 10 63° 18% - - 20° 64.2° 55.2° - - -
4/29 5:20am 32 3 G 8 63° 19% - - 20° 63.9° 55.2° - - -
4/29 5:10am 35 3 G 8 63° 19% - - 20° 63.9° 55.2° - - -
4/29 5:00am 38 3 G 7 63° 20% - - 21° 63.7° 55.2° - - -
4/29 4:50am 26 3 G 6 63° 21% - - 22° 63.2° 55.2° - - -
4/29 4:40am 38 3 G 8 62° 22% - - 23° 63.2° 55.2° - - -
4/29 4:30am 35 3 G 7 62° 23% - - 24° 62.6° 55.2° - - -
4/29 4:20am 35 2 G 6 62° 24% - - 25° 62.2° 55.2° - - -
4/29 4:10am 41 2 G 6 60° 28% - - 27° 61.5° 55.2° - - -
4/29 4:00am 77 1 G 4 58° 40% - - 33° 61.5° 55.2° - - -
4/29 3:50am 84 0 G 1 58° 41% - - 35° 61.5° 55.2° - - -
4/29 3:40am 33 0 G 2 59° 38% - - 33° 61.5° 55.2° - - -
4/29 3:30am 1 1 G 2 58° 43% - - 35° 61.5° 55.2° - - -
4/29 3:20am 360 1 G 1 57° 50% - - 39° 61.5° 55.2° - - -
4/29 3:10am 325 0 G 0 59° 46% - - 38° 61.5° 55.2° - - -
4/29 3:00am 48 0 G 2 61° 39% - - 36° 61.5° 55.2° - - -
4/29 2:50am 47 1 G 3 61° 40% - - 36° 61.4° 55.2° - - -
4/29 2:40am 25 1 G 4 60° 43% - - 38° 61.2° 55.2° - - -
4/29 2:30am 33 1 G 3 57° 60% - - 43° 59.6° 55.2° - - -
4/29 2:20am 218 0 G 1 56° 71% - - 46° 59.6° 55.2° - - -
4/29 2:10am 352 0 G 0 56° 70% - - 46° 59.6° 55.3° - - -
4/29 2:00am 8 1 G 2 56° 71% - - 47° 59.6° 55.4° - - -
4/29 1:50am 55 1 G 2 56° 70% - - 47° 59.6° 55.4° - - -
4/29 1:40am 58 0 G 2 57° 69% - - 46° 59.6° 56.3° - - -
4/29 1:30am 117 0 G 1 57° 68% - - 46° 59.6° 56.5° - - -
4/29 1:20am 66 0 G 2 57° 66% - - 46° 59.6° 56.9° - - -
4/29 1:10am 53 0 G 2 58° 64% - - 46° 59.6° 57.4° - - -
4/29 1:00am 50 0 G 2 58° 64% - - 46° 59.6° 57.5° - - -
4/29 12:50am 35 1 G 2 58° 64% - - 46° 59.6° 57.5° - - -
4/29 12:40am 31 1 G 2 58° 65% - - 47° 59.6° 57.5° - - -
4/29 12:30am 32 1 G 2 59° 65% - - 47° 59.6° 58.2° - - -
4/29 12:20am 35 1 G 2 59° 67% - - 48° 59.6° 58.2° - - -
4/29 12:10am 102 0 G 1 59° 68% - - 48° 59.6° 58.7° - - -
4/29 12:00am 60 1 G 2 59° 69% - - 49° 73.7° 53.2° - - -
4/28 11:50pm 30 1 G 2 59° 70% - - 49° 73.7° 53.2° - - -
4/28 11:40pm 22 0 G 2 59° 70% - - 50° 73.7° 53.2° - - -
4/28 11:30pm 351 1 G 3 60° 69% - - 50° 73.7° 53.2° - - -
4/28 11:20pm 191 1 G 2 60° 68% - - 50° 73.7° 53.2° - - -
4/28 11:10pm 141 0 G 1 60° 68% - - 50° 73.7° 53.2° - - -
4/28 11:00pm 10 0 G 2 60° 68% - - 50° 73.7° 53.2° - - -
4/28 10:50pm 8 1 G 3 60° 68% - - 50° 73.7° 53.2° - - -
4/28 10:40pm 61 1 G 2 61° 67% - - 50° 73.7° 53.2° - - -
4/28 10:30pm 66 0 G 1 61° 66% - - 50° 73.7° 53.2° - - -
4/28 10:20pm 165 0 G 1 62° 66% - - 50° 73.7° 53.2° - - -
4/28 10:10pm 135 1 G 2 62° 66% - - 50° 73.7° 53.2° - - -
4/28 10:00pm 154 1 G 3 62° 65% - - 51° 73.7° 53.2° - - -
4/28 9:50pm 156 1 G 2 63° 65% - - 51° 73.7° 53.2° - - -
4/28 9:40pm 180 2 G 3 63° 65% - - 51° 73.7° 53.2° - - -
4/28 9:30pm 187 3 G 5 63° 65% - - 51° 73.7° 53.2° - - -
4/28 9:20pm 163 2 G 3 63° 65% - - 51° 73.7° 53.2° - - -
4/28 9:10pm 157 2 G 4 63° 65% - - 51° 73.7° 53.2° - - -
4/28 9:00pm 167 2 G 4 63° 65% - - 51° 73.7° 53.2° - - -
4/28 8:50pm 167 2 G 5 63° 65% - - 51° 73.7° 53.2° - - -
4/28 8:40pm 168 3 G 5 63° 64% - - 51° 73.7° 53.2° - - -
4/28 8:30pm 162 2 G 4 63° 64% - - 51° 73.7° 53.2° - - -
4/28 8:20pm 173 2 G 5 63° 63% - - 51° 73.7° 53.2° - - -
4/28 8:10pm 238 2 G 8 64° 62% - - 51° 73.7° 53.2° - - -
4/28 8:00pm 224 4 G 9 64° 61% - - 50° 73.7° 53.2° - - -
4/28 7:50pm 225 4 G 10 65° 59% - - 50° 73.7° 53.2° - - -
4/28 7:40pm 238 5 G 10 65° 55% - - 49° 73.7° 53.2° - - -
4/28 7:30pm 241 4 G 7 66° 53% - - 48° 73.7° 53.2° - - -
4/28 7:20pm 230 3 G 9 66° 52% - - 48° 73.7° 53.2° - - -
4/28 7:10pm 219 4 G 8 66° 52% - - 48° 73.7° 53.2° - - -
4/28 7:00pm 240 3 G 8 67° 51% - - 48° 73.7° 53.2° - - -
4/28 6:50pm 250 4 G 8 67° 50% - - 48° 73.7° 53.2° - - -
4/28 6:40pm 231 4 G 11 67° 50% - - 48° 73.7° 53.2° - - -
4/28 6:30pm 222 4 G 8 67° 49% - - 48° 73.7° 53.2° - - -
4/28 6:20pm 242 4 G 9 67° 49% - - 47° 73.7° 53.2° - - -
4/28 6:10pm 239 5 G 11 67° 50% - - 47° 73.7° 53.2° - - -
4/28 6:00pm 256 5 G 11 67° 49% - - 47° 73.7° 53.2° - - -